Hortonville, Vermont
Current Conditions -  °F | °C
As of 1:55 PM on Sunday 23 Nov 2014 (Local Time) from KRUT Reporting Station
Clear Clear  
Wind Chill: 54°   Ceiling: Unl
Heat Index: 54°   Visibility: 10mi
Dew Point: 39°   Wind: 7mph
Humidity: 58%   Direction: 250°WSW
Pressure: 30.07"   Gusts: NA
Location:  43.437°N, 72.7883°W
Report Text: KRUT 231855Z 25006KT 10SM CLR 12/04 A3007 RMK AO1
Loading
Personal Weather Stations






























Interactive Weather Map New forecast layout! Learn more

10-Day Weather Forecast

Advertisements
Track Severe Weather on mobile